Terminal Aerodrome Forecast
Issued by NWS

Home | Current Version | Previous Version | Text Only | Print | Product List | Glossary On
Versions: 1 2 3 4 5 6 7 8 9 10 11 12
000
FTUS44 KSJT 271700
TAFBBD
TAF
KBBD 271737Z 2718/2818 12007KT P6SM SKC
     FM280100 15004KT P6SM SKC
     FM281200 18006KT P6SM SKC
      TEMPO 2813/2816 SCT020
     FM281600 18011KT P6SM SKC=

USA.gov is the U.S. government's official web portal to all federal, state and local government web resources and services.